This demonstration page uses our WeatherBlox Daily Observations layout. Learn more.

38.88101, -77.10428

Hourly Observations for June 2, 2017

Temp ( °F °C ) Dew Point ( °F °C ) Humidity (%) Winds ( mph kmh ) Pressure ( in mb ) Visibility ( mi km ) Precip ( " mm )
12:52 am 00:52 Mostly Cloudy 70 21.1 58 14.4 66 66 Calm 30 1016 10 16.09344 0 0
1:52 am 01:52 Mostly Cloudy 69 20.6 57 13.9 66 66 Calm 30 1016 10 16.09344 0 0
2:52 am 02:52 Mostly Cloudy 67 19.4 54 12.2 63 63 SW 3 6 30 1016 10 16.09344 0 0
3:52 am 03:52 Partly Cloudy 65 18.3 54 12.2 68 68 Calm 29.97 1015 10 16.09344 0 0
4:52 am 04:52 Mostly Clear 64 17.8 54 12.2 70 70 Calm 30 1016 10 16.09344 0 0
5:52 am 05:52 Mostly Sunny 62 16.7 54 12.2 75 75 Calm 30 1016 10 16.09344 0 0
6:52 am 06:52 Mostly Sunny 64 17.8 55 12.8 73 73 SSW 3 6 30 1016 10 16.09344 0 0
7:52 am 07:52 Sunny 68 20 55 12.8 63 63 SSW 3 6 30 1016 10 16.09344 0 0
8:52 am 08:52 Sunny 71 21.7 60 15.6 68 68 N 5 7 30.03 1017 10 16.09344 0 0
9:52 am 09:52 Sunny 78 25.6 52 11.1 40 40 undefined N/A 30.03 1017 10 16.09344 0 0
10:52 am 10:52 Mostly Sunny 80 26.7 54 12.2 41 41 undefined N/A 30 1016 10 16.09344 0 0
11:50 am 11:50 Partly Cloudy 81 27 52 11 37 37 NNW 13 20 30.03 1017 10 16.09344 0 0
11:52 am 11:52 Partly Cloudy 81 27.2 52 11.1 37 37 NNW 12 19 30 1016 10 16.09344 0 0
12:50 pm 12:50 Sunny 81 27 48 9 32 32 NW 13 20 30 1016 10 16.09344 0 0
1:52 pm 13:52 Partly Cloudy 80 26.7 48 8.9 33 33 WNW 10 17 29.97 1015 10 16.09344 0 0
2:52 pm 14:52 Partly Cloudy 81 27.2 47 8.3 30 30 N 21 33 29.97 1015 10 16.09344 0 0
3:52 pm 15:52 Mostly Sunny 82 27.8 45 7.2 27 27 NNW 23 37 29.97 1015 10 16.09344 0 0
4:52 pm 16:52 Mostly Sunny 83 28.3 44 6.7 25 25 NW 15 24 29.97 1015 10 16.09344 0 0
5:52 pm 17:52 Mostly Sunny 81 27.2 43 6.1 26 26 NW 14 22 29.97 1015 10 16.09344 0 0
6:52 pm 18:52 Mostly Sunny 80 26.7 42 5.6 26 26 NNW 21 33 29.97 1015 10 16.09344 0 0
8:52 pm 20:52 Mostly Clear 75 23.9 41 5 29 29 NNW 7 11 30 1016 10 16.09344 0 0
9:52 pm 21:52 Mostly Clear 71 21.7 43 6.1 36 36 NNW 7 11 30 1016 10 16.09344 0 0
10:52 pm 22:52 Clear 71 21.7 49 9.4 46 46 Calm 30.03 1017 10 16.09344 0 0
11:52 pm 23:52 Clear 68 20 47 8.3 47 47 SW 3 6 30.03 1017 10 16.09344 0 0

Powered by AerisWeather